sensor_id;sensor_type;location;lat;lon;timestamp;temperature;humidity
16289;DHT22;26089;43.538;5.250;2023-03-31T00:01:36;11.10;99.90
16289;DHT22;26089;43.538;5.250;2023-03-31T00:04:09;11.10;99.90
16289;DHT22;26089;43.538;5.250;2023-03-31T00:06:41;11.10;99.90
16289;DHT22;26089;43.538;5.250;2023-03-31T00:09:10;11.00;99.90
16289;DHT22;26089;43.538;5.250;2023-03-31T00:11:37;11.10;99.90
16289;DHT22;26089;43.538;5.250;2023-03-31T00:14:05;11.10;99.90
16289;DHT22;26089;43.538;5.250;2023-03-31T00:16:32;11.10;99.90
16289;DHT22;26089;43.538;5.250;2023-03-31T00:19:00;11.10;99.90
16289;DHT22;26089;43.538;5.250;2023-03-31T00:21:28;11.60;99.90
16289;DHT22;26089;43.538;5.250;2023-03-31T00:23:59;11.00;99.90
16289;DHT22;26089;43.538;5.250;2023-03-31T00:26:27;11.00;99.90
16289;DHT22;26089;43.538;5.250;2023-03-31T00:28:55;11.00;99.90
16289;DHT22;26089;43.538;5.250;2023-03-31T00:31:23;10.90;99.90
16289;DHT22;26089;43.538;5.250;2023-03-31T00:33:50;11.00;99.90
16289;DHT22;26089;43.538;5.250;2023-03-31T00:36:18;11.00;99.90
16289;DHT22;26089;43.538;5.250;2023-03-31T00:38:52;11.00;99.90
16289;DHT22;26089;43.538;5.250;2023-03-31T00:41:19;10.90;99.90
16289;DHT22;26089;43.538;5.250;2023-03-31T00:44:06;11.00;99.90
16289;DHT22;26089;43.538;5.250;2023-03-31T00:46:37;10.90;99.90
16289;DHT22;26089;43.538;5.250;2023-03-31T00:49:05;11.70;99.90
16289;DHT22;26089;43.538;5.250;2023-03-31T00:51:36;10.90;99.90
16289;DHT22;26089;43.538;5.250;2023-03-31T00:54:05;10.90;99.90
16289;DHT22;26089;43.538;5.250;2023-03-31T00:56:36;10.90;99.90
16289;DHT22;26089;43.538;5.250;2023-03-31T00:59:07;10.90;99.90
16289;DHT22;26089;43.538;5.250;2023-03-31T01:01:38;10.90;99.90
16289;DHT22;26089;43.538;5.250;2023-03-31T01:04:11;10.90;99.90
16289;DHT22;26089;43.538;5.250;2023-03-31T01:06:49;10.80;99.90
16289;DHT22;26089;43.538;5.250;2023-03-31T01:09:23;10.90;99.90
16289;DHT22;26089;43.538;5.250;2023-03-31T01:11:50;10.40;99.90
16289;DHT22;26089;43.538;5.250;2023-03-31T01:14:18;10.80;99.90
16289;DHT22;26089;43.538;5.250;2023-03-31T01:16:45;10.80;99.90
16289;DHT22;26089;43.538;5.250;2023-03-31T01:19:19;10.80;99.90
16289;DHT22;26089;43.538;5.250;2023-03-31T01:22:35;10.80;99.90
16289;DHT22;26089;43.538;5.250;2023-03-31T01:25:36;10.80;99.90
16289;DHT22;26089;43.538;5.250;2023-03-31T01:28:21;10.80;99.90
16289;DHT22;26089;43.538;5.250;2023-03-31T01:31:17;10.80;99.90
16289;DHT22;26089;43.538;5.250;2023-03-31T01:34:21;10.70;99.90
16289;DHT22;26089;43.538;5.250;2023-03-31T01:37:13;10.70;99.90
16289;DHT22;26089;43.538;5.250;2023-03-31T01:42:52;10.70;99.90
16289;DHT22;26089;43.538;5.250;2023-03-31T01:45:28;10.70;99.90
16289;DHT22;26089;43.538;5.250;2023-03-31T01:48:03;10.70;99.90
16289;DHT22;26089;43.538;5.250;2023-03-31T01:50:35;10.70;99.90
16289;DHT22;26089;43.538;5.250;2023-03-31T01:53:07;10.60;99.90
16289;DHT22;26089;43.538;5.250;2023-03-31T01:55:39;10.90;99.90
16289;DHT22;26089;43.538;5.250;2023-03-31T01:58:11;10.90;99.90
16289;DHT22;26089;43.538;5.250;2023-03-31T02:00:42;10.90;99.90
16289;DHT22;26089;43.538;5.250;2023-03-31T02:03:15;9.90;99.90
16289;DHT22;26089;43.538;5.250;2023-03-31T02:05:46;10.90;99.90
16289;DHT22;26089;43.538;5.250;2023-03-31T02:08:18;10.90;99.90
16289;DHT22;26089;43.538;5.250;2023-03-31T02:10:48;11.00;99.90
16289;DHT22;26089;43.538;5.250;2023-03-31T02:13:19;10.80;99.90
16289;DHT22;26089;43.538;5.250;2023-03-31T02:15:49;11.00;99.90
16289;DHT22;26089;43.538;5.250;2023-03-31T02:18:19;10.80;99.90
16289;DHT22;26089;43.538;5.250;2023-03-31T02:20:52;11.00;99.90
16289;DHT22;26089;43.538;5.250;2023-03-31T02:23:23;11.10;99.90
16289;DHT22;26089;43.538;5.250;2023-03-31T02:25:58;11.00;99.90
16289;DHT22;26089;43.538;5.250;2023-03-31T02:28:28;11.00;99.90
16289;DHT22;26089;43.538;5.250;2023-03-31T02:31:06;10.90;99.90
16289;DHT22;26089;43.538;5.250;2023-03-31T02:33:34;10.90;99.90
16289;DHT22;26089;43.538;5.250;2023-03-31T02:36:01;10.90;99.90
16289;DHT22;26089;43.538;5.250;2023-03-31T02:38:30;10.90;99.90
16289;DHT22;26089;43.538;5.250;2023-03-31T02:40:58;10.80;99.90
16289;DHT22;26089;43.538;5.250;2023-03-31T02:43:25;10.80;99.90
16289;DHT22;26089;43.538;5.250;2023-03-31T02:45:54;10.80;99.90
16289;DHT22;26089;43.538;5.250;2023-03-31T02:48:23;10.80;99.90
16289;DHT22;26089;43.538;5.250;2023-03-31T02:51:18;10.80;99.90
16289;DHT22;26089;43.538;5.250;2023-03-31T02:53:59;10.80;99.90
16289;DHT22;26089;43.538;5.250;2023-03-31T02:56:43;10.80;99.90
16289;DHT22;26089;43.538;5.250;2023-03-31T02:59:21;10.90;99.90
16289;DHT22;26089;43.538;5.250;2023-03-31T03:02:13;10.90;99.90
16289;DHT22;26089;43.538;5.250;2023-03-31T03:04:52;10.80;99.90
16289;DHT22;26089;43.538;5.250;2023-03-31T03:07:30;10.80;99.90
16289;DHT22;26089;43.538;5.250;2023-03-31T03:10:02;10.80;99.90
16289;DHT22;26089;43.538;5.250;2023-03-31T03:12:35;10.90;99.90
16289;DHT22;26089;43.538;5.250;2023-03-31T03:15:05;10.90;99.90
16289;DHT22;26089;43.538;5.250;2023-03-31T03:17:38;10.90;99.90
16289;DHT22;26089;43.538;5.250;2023-03-31T03:20:07;10.90;99.90
16289;DHT22;26089;43.538;5.250;2023-03-31T03:22:36;10.80;99.90
16289;DHT22;26089;43.538;5.250;2023-03-31T03:25:04;10.80;99.90
16289;DHT22;26089;43.538;5.250;2023-03-31T03:27:32;10.80;99.90
16289;DHT22;26089;43.538;5.250;2023-03-31T03:30:00;10.80;99.90
16289;DHT22;26089;43.538;5.250;2023-03-31T03:32:29;11.00;99.90
16289;DHT22;26089;43.538;5.250;2023-03-31T03:34:59;10.80;99.90
16289;DHT22;26089;43.538;5.250;2023-03-31T03:37:27;10.80;99.90
16289;DHT22;26089;43.538;5.250;2023-03-31T03:39:54;10.80;99.90
16289;DHT22;26089;43.538;5.250;2023-03-31T03:42:21;10.80;99.90
16289;DHT22;26089;43.538;5.250;2023-03-31T03:44:48;10.80;99.90
16289;DHT22;26089;43.538;5.250;2023-03-31T03:47:15;10.80;99.90
16289;DHT22;26089;43.538;5.250;2023-03-31T03:49:42;10.50;99.90
16289;DHT22;26089;43.538;5.250;2023-03-31T03:52:10;10.80;99.90
16289;DHT22;26089;43.538;5.250;2023-03-31T03:54:37;10.80;99.90
16289;DHT22;26089;43.538;5.250;2023-03-31T03:57:04;10.90;99.90
16289;DHT22;26089;43.538;5.250;2023-03-31T03:59:32;10.90;99.90
16289;DHT22;26089;43.538;5.250;2023-03-31T04:01:59;10.80;99.90
16289;DHT22;26089;43.538;5.250;2023-03-31T04:04:26;10.80;99.90
16289;DHT22;26089;43.538;5.250;2023-03-31T04:06:53;10.80;99.90
16289;DHT22;26089;43.538;5.250;2023-03-31T04:09:21;10.80;99.90
16289;DHT22;26089;43.538;5.250;2023-03-31T04:11:48;10.80;99.90
16289;DHT22;26089;43.538;5.250;2023-03-31T04:14:15;10.80;99.90
16289;DHT22;26089;43.538;5.250;2023-03-31T04:16:42;10.80;99.90
16289;DHT22;26089;43.538;5.250;2023-03-31T04:19:11;10.80;99.90
16289;DHT22;26089;43.538;5.250;2023-03-31T04:21:39;10.80;99.90
16289;DHT22;26089;43.538;5.250;2023-03-31T04:24:10;10.60;99.90
16289;DHT22;26089;43.538;5.250;2023-03-31T04:26:47;10.80;99.90
16289;DHT22;26089;43.538;5.250;2023-03-31T04:29:15;10.80;99.90
16289;DHT22;26089;43.538;5.250;2023-03-31T04:31:45;10.80;99.90
16289;DHT22;26089;43.538;5.250;2023-03-31T04:34:14;10.80;99.90
16289;DHT22;26089;43.538;5.250;2023-03-31T04:36:42;11.00;99.90
16289;DHT22;26089;43.538;5.250;2023-03-31T04:39:12;10.80;99.90
16289;DHT22;26089;43.538;5.250;2023-03-31T04:41:39;11.20;99.90
16289;DHT22;26089;43.538;5.250;2023-03-31T04:44:07;10.70;99.90
16289;DHT22;26089;43.538;5.250;2023-03-31T04:46:35;10.70;99.90
16289;DHT22;26089;43.538;5.250;2023-03-31T04:49:02;10.70;99.90
16289;DHT22;26089;43.538;5.250;2023-03-31T04:51:30;10.70;99.90
16289;DHT22;26089;43.538;5.250;2023-03-31T04:53:57;10.80;99.90
16289;DHT22;26089;43.538;5.250;2023-03-31T04:56:24;10.80;99.90
16289;DHT22;26089;43.538;5.250;2023-03-31T04:58:51;10.80;99.90
16289;DHT22;26089;43.538;5.250;2023-03-31T05:01:20;10.80;99.90
16289;DHT22;26089;43.538;5.250;2023-03-31T05:03:47;10.80;99.90
16289;DHT22;26089;43.538;5.250;2023-03-31T05:06:15;10.80;99.90
16289;DHT22;26089;43.538;5.250;2023-03-31T05:08:42;10.80;99.90
16289;DHT22;26089;43.538;5.250;2023-03-31T05:11:09;10.80;99.90
16289;DHT22;26089;43.538;5.250;2023-03-31T05:13:36;10.80;99.90
16289;DHT22;26089;43.538;5.250;2023-03-31T05:16:07;10.80;99.90
16289;DHT22;26089;43.538;5.250;2023-03-31T05:18:37;10.80;99.90
16289;DHT22;26089;43.538;5.250;2023-03-31T05:21:14;10.80;99.90
16289;DHT22;26089;43.538;5.250;2023-03-31T05:23:42;10.80;99.90
16289;DHT22;26089;43.538;5.250;2023-03-31T05:26:09;10.80;99.90
16289;DHT22;26089;43.538;5.250;2023-03-31T05:28:37;10.80;99.90
16289;DHT22;26089;43.538;5.250;2023-03-31T05:31:05;10.60;99.90
16289;DHT22;26089;43.538;5.250;2023-03-31T05:33:32;10.80;99.90
16289;DHT22;26089;43.538;5.250;2023-03-31T05:36:07;10.80;99.90
16289;DHT22;26089;43.538;5.250;2023-03-31T05:38:34;10.80;99.90
16289;DHT22;26089;43.538;5.250;2023-03-31T05:41:01;10.80;99.90
16289;DHT22;26089;43.538;5.250;2023-03-31T05:43:29;10.80;99.90
16289;DHT22;26089;43.538;5.250;2023-03-31T05:45:56;10.90;99.90
16289;DHT22;26089;43.538;5.250;2023-03-31T05:48:23;10.90;99.90
16289;DHT22;26089;43.538;5.250;2023-03-31T05:50:50;10.80;99.90
16289;DHT22;26089;43.538;5.250;2023-03-31T05:53:18;10.90;99.90
16289;DHT22;26089;43.538;5.250;2023-03-31T05:55:45;10.30;99.90
16289;DHT22;26089;43.538;5.250;2023-03-31T05:58:12;10.80;99.90
16289;DHT22;26089;43.538;5.250;2023-03-31T06:00:39;10.90;99.90
16289;DHT22;26089;43.538;5.250;2023-03-31T06:03:09;10.90;99.90
16289;DHT22;26089;43.538;5.250;2023-03-31T06:05:36;10.90;99.90
16289;DHT22;26089;43.538;5.250;2023-03-31T06:08:03;10.90;99.90
16289;DHT22;26089;43.538;5.250;2023-03-31T06:10:31;10.90;99.90
16289;DHT22;26089;43.538;5.250;2023-03-31T06:13:00;11.00;99.90
16289;DHT22;26089;43.538;5.250;2023-03-31T06:15:27;11.10;99.90
16289;DHT22;26089;43.538;5.250;2023-03-31T06:17:54;11.10;99.90
16289;DHT22;26089;43.538;5.250;2023-03-31T06:20:21;11.20;99.90
16289;DHT22;26089;43.538;5.250;2023-03-31T06:22:48;11.20;99.90
16289;DHT22;26089;43.538;5.250;2023-03-31T06:25:15;11.20;99.90
16289;DHT22;26089;43.538;5.250;2023-03-31T06:27:43;11.30;99.90
16289;DHT22;26089;43.538;5.250;2023-03-31T06:30:11;11.70;99.90
16289;DHT22;26089;43.538;5.250;2023-03-31T06:32:38;11.30;99.90
16289;DHT22;26089;43.538;5.250;2023-03-31T06:35:06;11.40;99.90
16289;DHT22;26089;43.538;5.250;2023-03-31T06:37:33;11.40;99.90
16289;DHT22;26089;43.538;5.250;2023-03-31T06:40:00;11.40;99.90
16289;DHT22;26089;43.538;5.250;2023-03-31T06:42:27;11.40;99.90
16289;DHT22;26089;43.538;5.250;2023-03-31T06:44:55;11.40;99.90
16289;DHT22;26089;43.538;5.250;2023-03-31T06:47:22;11.40;99.90
16289;DHT22;26089;43.538;5.250;2023-03-31T06:49:49;11.40;99.90
16289;DHT22;26089;43.538;5.250;2023-03-31T06:52:16;11.50;99.90
16289;DHT22;26089;43.538;5.250;2023-03-31T06:54:43;11.60;99.90
16289;DHT22;26089;43.538;5.250;2023-03-31T06:57:10;11.60;99.90
16289;DHT22;26089;43.538;5.250;2023-03-31T06:59:37;11.70;99.90
16289;DHT22;26089;43.538;5.250;2023-03-31T07:02:05;11.80;99.90
16289;DHT22;26089;43.538;5.250;2023-03-31T07:04:32;11.80;99.90
16289;DHT22;26089;43.538;5.250;2023-03-31T07:07:00;11.90;99.90
16289;DHT22;26089;43.538;5.250;2023-03-31T07:09:27;12.00;99.90
16289;DHT22;26089;43.538;5.250;2023-03-31T07:11:54;12.10;99.90
16289;DHT22;26089;43.538;5.250;2023-03-31T07:14:20;12.20;99.90
16289;DHT22;26089;43.538;5.250;2023-03-31T07:16:48;12.40;99.90
16289;DHT22;26089;43.538;5.250;2023-03-31T07:19:16;12.50;99.90
16289;DHT22;26089;43.538;5.250;2023-03-31T07:21:44;12.60;99.90
16289;DHT22;26089;43.538;5.250;2023-03-31T07:24:11;12.70;99.90
16289;DHT22;26089;43.538;5.250;2023-03-31T07:26:37;12.80;99.90
16289;DHT22;26089;43.538;5.250;2023-03-31T07:29:05;13.00;99.90
16289;DHT22;26089;43.538;5.250;2023-03-31T07:31:32;13.10;99.90
16289;DHT22;26089;43.538;5.250;2023-03-31T07:34:00;13.30;99.90
16289;DHT22;26089;43.538;5.250;2023-03-31T07:36:29;13.40;99.90
16289;DHT22;26089;43.538;5.250;2023-03-31T07:38:56;13.50;99.90
16289;DHT22;26089;43.538;5.250;2023-03-31T07:41:24;13.60;99.90
16289;DHT22;26089;43.538;5.250;2023-03-31T07:43:51;13.70;99.90
16289;DHT22;26089;43.538;5.250;2023-03-31T07:46:21;13.90;99.90
16289;DHT22;26089;43.538;5.250;2023-03-31T07:48:48;13.80;99.90
16289;DHT22;26089;43.538;5.250;2023-03-31T07:51:17;14.10;99.90
16289;DHT22;26089;43.538;5.250;2023-03-31T07:53:46;14.30;99.90
16289;DHT22;26089;43.538;5.250;2023-03-31T07:56:17;14.90;99.90
16289;DHT22;26089;43.538;5.250;2023-03-31T07:58:46;15.10;99.90
16289;DHT22;26089;43.538;5.250;2023-03-31T08:01:13;15.40;99.90
16289;DHT22;26089;43.538;5.250;2023-03-31T08:03:42;15.60;99.90
16289;DHT22;26089;43.538;5.250;2023-03-31T08:06:09;15.60;99.90
16289;DHT22;26089;43.538;5.250;2023-03-31T08:08:36;15.50;99.90
16289;DHT22;26089;43.538;5.250;2023-03-31T08:11:09;15.50;99.90
16289;DHT22;26089;43.538;5.250;2023-03-31T08:13:36;15.60;99.90
16289;DHT22;26089;43.538;5.250;2023-03-31T08:16:03;15.90;99.90
16289;DHT22;26089;43.538;5.250;2023-03-31T08:18:30;16.40;99.90
16289;DHT22;26089;43.538;5.250;2023-03-31T08:20:57;17.00;99.90
16289;DHT22;26089;43.538;5.250;2023-03-31T08:23:24;17.50;99.90
16289;DHT22;26089;43.538;5.250;2023-03-31T08:25:51;17.80;99.90
16289;DHT22;26089;43.538;5.250;2023-03-31T08:28:19;17.90;99.90
16289;DHT22;26089;43.538;5.250;2023-03-31T08:30:46;17.50;99.90
16289;DHT22;26089;43.538;5.250;2023-03-31T08:33:13;17.00;99.90
16289;DHT22;26089;43.538;5.250;2023-03-31T08:35:40;16.80;99.90
16289;DHT22;26089;43.538;5.250;2023-03-31T08:38:07;17.40;99.90
16289;DHT22;26089;43.538;5.250;2023-03-31T08:40:34;18.10;99.90
16289;DHT22;26089;43.538;5.250;2023-03-31T08:43:05;18.70;99.90
16289;DHT22;26089;43.538;5.250;2023-03-31T08:45:37;18.90;99.90
16289;DHT22;26089;43.538;5.250;2023-03-31T08:48:08;19.00;99.90
16289;DHT22;26089;43.538;5.250;2023-03-31T08:50:45;19.60;99.90
16289;DHT22;26089;43.538;5.250;2023-03-31T08:53:19;19.20;99.90
16289;DHT22;26089;43.538;5.250;2023-03-31T08:55:50;18.70;99.90
16289;DHT22;26089;43.538;5.250;2023-03-31T08:58:28;18.00;99.90
16289;DHT22;26089;43.538;5.250;2023-03-31T09:01:02;18.50;99.90
16289;DHT22;26089;43.538;5.250;2023-03-31T09:03:38;19.20;99.90
16289;DHT22;26089;43.538;5.250;2023-03-31T09:06:11;19.90;99.90
16289;DHT22;26089;43.538;5.250;2023-03-31T09:08:40;19.70;99.90
16289;DHT22;26089;43.538;5.250;2023-03-31T09:11:14;19.00;99.90
16289;DHT22;26089;43.538;5.250;2023-03-31T09:14:12;18.70;99.90
16289;DHT22;26089;43.538;5.250;2023-03-31T09:16:48;18.80;99.90
16289;DHT22;26089;43.538;5.250;2023-03-31T09:19:33;19.00;99.90
16289;DHT22;26089;43.538;5.250;2023-03-31T09:22:04;19.20;99.90
16289;DHT22;26089;43.538;5.250;2023-03-31T09:24:35;19.10;99.90
16289;DHT22;26089;43.538;5.250;2023-03-31T09:27:09;19.70;99.90
16289;DHT22;26089;43.538;5.250;2023-03-31T09:29:41;20.20;99.90
16289;DHT22;26089;43.538;5.250;2023-03-31T09:32:14;20.00;99.90
16289;DHT22;26089;43.538;5.250;2023-03-31T09:34:42;19.20;99.90
16289;DHT22;26089;43.538;5.250;2023-03-31T09:37:11;19.40;99.90
16289;DHT22;26089;43.538;5.250;2023-03-31T09:39:38;19.50;99.90
16289;DHT22;26089;43.538;5.250;2023-03-31T09:42:07;19.50;99.90
16289;DHT22;26089;43.538;5.250;2023-03-31T09:44:37;19.60;99.90
16289;DHT22;26089;43.538;5.250;2023-03-31T09:47:05;19.50;99.90
16289;DHT22;26089;43.538;5.250;2023-03-31T09:49:38;19.40;99.90
16289;DHT22;26089;43.538;5.250;2023-03-31T09:52:13;19.50;99.90
16289;DHT22;26089;43.538;5.250;2023-03-31T09:54:46;19.50;99.90
16289;DHT22;26089;43.538;5.250;2023-03-31T09:57:23;19.40;99.90
16289;DHT22;26089;43.538;5.250;2023-03-31T09:59:51;18.90;99.90
16289;DHT22;26089;43.538;5.250;2023-03-31T10:02:34;18.90;99.90
16289;DHT22;26089;43.538;5.250;2023-03-31T10:05:05;18.70;99.90
16289;DHT22;26089;43.538;5.250;2023-03-31T10:07:33;18.70;99.90
16289;DHT22;26089;43.538;5.250;2023-03-31T10:10:01;18.70;99.90
16289;DHT22;26089;43.538;5.250;2023-03-31T10:12:29;18.70;99.90
16289;DHT22;26089;43.538;5.250;2023-03-31T10:15:14;18.70;99.90
16289;DHT22;26089;43.538;5.250;2023-03-31T10:17:45;18.70;99.90
16289;DHT22;26089;43.538;5.250;2023-03-31T10:20:30;18.60;99.90
16289;DHT22;26089;43.538;5.250;2023-03-31T10:23:02;18.50;99.90
16289;DHT22;26089;43.538;5.250;2023-03-31T10:25:29;18.50;99.90
16289;DHT22;26089;43.538;5.250;2023-03-31T10:28:00;18.40;99.90
16289;DHT22;26089;43.538;5.250;2023-03-31T10:30:34;18.40;99.90
16289;DHT22;26089;43.538;5.250;2023-03-31T10:33:13;18.50;99.90
16289;DHT22;26089;43.538;5.250;2023-03-31T10:35:44;18.50;99.90
16289;DHT22;26089;43.538;5.250;2023-03-31T10:38:16;18.50;99.90
16289;DHT22;26089;43.538;5.250;2023-03-31T10:40:50;18.60;99.90
16289;DHT22;26089;43.538;5.250;2023-03-31T10:43:20;18.40;99.90
16289;DHT22;26089;43.538;5.250;2023-03-31T10:45:52;18.50;99.90
16289;DHT22;26089;43.538;5.250;2023-03-31T10:48:23;18.40;99.90
16289;DHT22;26089;43.538;5.250;2023-03-31T10:50:52;18.30;99.90
16289;DHT22;26089;43.538;5.250;2023-03-31T10:53:20;18.40;99.90
16289;DHT22;26089;43.538;5.250;2023-03-31T10:55:58;18.00;99.90
16289;DHT22;26089;43.538;5.250;2023-03-31T10:58:37;18.10;99.90
16289;DHT22;26089;43.538;5.250;2023-03-31T11:01:15;18.20;99.90
16289;DHT22;26089;43.538;5.250;2023-03-31T11:06:56;18.70;99.90
16289;DHT22;26089;43.538;5.250;2023-03-31T11:09:35;19.50;99.90
16289;DHT22;26089;43.538;5.250;2023-03-31T11:12:12;19.60;99.90
16289;DHT22;26089;43.538;5.250;2023-03-31T11:14:50;19.80;99.90
16289;DHT22;26089;43.538;5.250;2023-03-31T11:17:29;20.20;99.90
16289;DHT22;26089;43.538;5.250;2023-03-31T11:20:07;20.80;99.90
16289;DHT22;26089;43.538;5.250;2023-03-31T11:22:43;20.90;99.90
16289;DHT22;26089;43.538;5.250;2023-03-31T11:25:27;21.00;99.90
16289;DHT22;26089;43.538;5.250;2023-03-31T11:28:21;20.80;99.90
16289;DHT22;26089;43.538;5.250;2023-03-31T11:30:56;20.90;99.90
16289;DHT22;26089;43.538;5.250;2023-03-31T11:33:35;21.40;99.90
16289;DHT22;26089;43.538;5.250;2023-03-31T11:36:13;21.50;99.90
16289;DHT22;26089;43.538;5.250;2023-03-31T11:38:56;22.00;99.90
16289;DHT22;26089;43.538;5.250;2023-03-31T11:41:31;22.10;99.90
16289;DHT22;26089;43.538;5.250;2023-03-31T11:44:01;22.20;99.90
16289;DHT22;26089;43.538;5.250;2023-03-31T11:46:34;22.50;99.90
16289;DHT22;26089;43.538;5.250;2023-03-31T11:49:07;22.80;99.90
16289;DHT22;26089;43.538;5.250;2023-03-31T11:51:42;23.20;99.90
16289;DHT22;26089;43.538;5.250;2023-03-31T11:54:17;23.00;99.90
16289;DHT22;26089;43.538;5.250;2023-03-31T11:56:46;22.90;99.90
16289;DHT22;26089;43.538;5.250;2023-03-31T11:59:15;23.10;99.90
16289;DHT22;26089;43.538;5.250;2023-03-31T12:01:47;23.30;99.90
16289;DHT22;26089;43.538;5.250;2023-03-31T12:04:24;23.00;99.90
16289;DHT22;26089;43.538;5.250;2023-03-31T12:06:52;22.70;99.90
16289;DHT22;26089;43.538;5.250;2023-03-31T12:09:28;22.60;99.90
16289;DHT22;26089;43.538;5.250;2023-03-31T12:11:58;23.00;99.90
16289;DHT22;26089;43.538;5.250;2023-03-31T12:14:32;22.40;99.90
16289;DHT22;26089;43.538;5.250;2023-03-31T12:17:04;22.00;99.90
16289;DHT22;26089;43.538;5.250;2023-03-31T12:19:41;22.40;99.90
16289;DHT22;26089;43.538;5.250;2023-03-31T12:22:14;22.40;99.90
16289;DHT22;26089;43.538;5.250;2023-03-31T12:24:43;22.60;99.90
16289;DHT22;26089;43.538;5.250;2023-03-31T12:27:14;22.30;99.90
16289;DHT22;26089;43.538;5.250;2023-03-31T12:29:45;22.30;99.90
16289;DHT22;26089;43.538;5.250;2023-03-31T12:32:15;22.30;99.90
16289;DHT22;26089;43.538;5.250;2023-03-31T12:34:47;22.00;99.90
16289;DHT22;26089;43.538;5.250;2023-03-31T12:38:03;21.80;99.90
16289;DHT22;26089;43.538;5.250;2023-03-31T12:40:42;22.20;99.90
16289;DHT22;26089;43.538;5.250;2023-03-31T12:43:32;22.30;99.90
16289;DHT22;26089;43.538;5.250;2023-03-31T12:46:15;22.40;99.90
16289;DHT22;26089;43.538;5.250;2023-03-31T12:48:56;22.80;99.90
16289;DHT22;26089;43.538;5.250;2023-03-31T12:54:50;23.10;99.90
16289;DHT22;26089;43.538;5.250;2023-03-31T12:57:23;23.00;99.90
16289;DHT22;26089;43.538;5.250;2023-03-31T13:00:20;23.30;99.90
16289;DHT22;26089;43.538;5.250;2023-03-31T13:02:48;23.50;99.90
16289;DHT22;26089;43.538;5.250;2023-03-31T13:05:44;22.70;99.90
16289;DHT22;26089;43.538;5.250;2023-03-31T13:11:13;21.60;99.90
16289;DHT22;26089;43.538;5.250;2023-03-31T13:13:44;21.10;99.90
16289;DHT22;26089;43.538;5.250;2023-03-31T13:16:18;20.80;99.90
16289;DHT22;26089;43.538;5.250;2023-03-31T13:18:50;20.50;99.90
16289;DHT22;26089;43.538;5.250;2023-03-31T13:21:18;20.80;99.90
16289;DHT22;26089;43.538;5.250;2023-03-31T13:23:45;20.90;99.90
16289;DHT22;26089;43.538;5.250;2023-03-31T13:26:35;20.90;99.90
16289;DHT22;26089;43.538;5.250;2023-03-31T13:29:21;21.40;99.90
16289;DHT22;26089;43.538;5.250;2023-03-31T13:32:17;21.90;99.90
16289;DHT22;26089;43.538;5.250;2023-03-31T13:34:50;22.10;99.90
16289;DHT22;26089;43.538;5.250;2023-03-31T13:37:28;21.70;99.90
16289;DHT22;26089;43.538;5.250;2023-03-31T13:40:29;21.80;99.90
16289;DHT22;26089;43.538;5.250;2023-03-31T13:43:24;22.00;99.90
16289;DHT22;26089;43.538;5.250;2023-03-31T13:46:18;22.10;99.90
16289;DHT22;26089;43.538;5.250;2023-03-31T13:48:56;22.40;99.90
16289;DHT22;26089;43.538;5.250;2023-03-31T13:51:40;21.20;99.90
16289;DHT22;26089;43.538;5.250;2023-03-31T13:54:32;20.80;99.90
16289;DHT22;26089;43.538;5.250;2023-03-31T13:57:26;21.10;99.90
16289;DHT22;26089;43.538;5.250;2023-03-31T14:03:18;21.10;99.90
16289;DHT22;26089;43.538;5.250;2023-03-31T14:05:53;21.20;99.90
16289;DHT22;26089;43.538;5.250;2023-03-31T14:08:30;20.80;99.90
16289;DHT22;26089;43.538;5.250;2023-03-31T14:11:14;21.20;99.90
16289;DHT22;26089;43.538;5.250;2023-03-31T14:13:41;21.60;99.90
16289;DHT22;26089;43.538;5.250;2023-03-31T14:16:09;21.90;99.90
16289;DHT22;26089;43.538;5.250;2023-03-31T14:18:41;21.00;99.90
16289;DHT22;26089;43.538;5.250;2023-03-31T14:21:18;21.10;99.90
16289;DHT22;26089;43.538;5.250;2023-03-31T14:23:55;21.00;99.90
16289;DHT22;26089;43.538;5.250;2023-03-31T14:26:41;21.00;99.90
16289;DHT22;26089;43.538;5.250;2023-03-31T14:29:15;20.90;99.90
16289;DHT22;26089;43.538;5.250;2023-03-31T14:31:52;21.40;99.90
16289;DHT22;26089;43.538;5.250;2023-03-31T14:34:38;21.80;99.90
16289;DHT22;26089;43.538;5.250;2023-03-31T14:37:09;22.00;99.90
16289;DHT22;26089;43.538;5.250;2023-03-31T14:39:41;22.40;99.90
16289;DHT22;26089;43.538;5.250;2023-03-31T14:42:11;22.20;99.90
16289;DHT22;26089;43.538;5.250;2023-03-31T14:44:39;22.20;99.90
16289;DHT22;26089;43.538;5.250;2023-03-31T14:47:12;21.50;99.90
16289;DHT22;26089;43.538;5.250;2023-03-31T14:49:41;21.70;99.90
16289;DHT22;26089;43.538;5.250;2023-03-31T14:52:14;21.80;99.90
16289;DHT22;26089;43.538;5.250;2023-03-31T14:54:44;21.60;99.90
16289;DHT22;26089;43.538;5.250;2023-03-31T14:57:13;21.90;99.90
16289;DHT22;26089;43.538;5.250;2023-03-31T14:59:42;21.50;99.90
16289;DHT22;26089;43.538;5.250;2023-03-31T15:02:15;21.30;99.90
16289;DHT22;26089;43.538;5.250;2023-03-31T15:04:47;20.80;99.90
16289;DHT22;26089;43.538;5.250;2023-03-31T15:07:15;20.50;99.90
16289;DHT22;26089;43.538;5.250;2023-03-31T15:09:47;20.80;99.90
16289;DHT22;26089;43.538;5.250;2023-03-31T15:12:17;20.70;99.90
16289;DHT22;26089;43.538;5.250;2023-03-31T15:14:45;20.40;99.90
16289;DHT22;26089;43.538;5.250;2023-03-31T15:17:19;20.40;99.90
16289;DHT22;26089;43.538;5.250;2023-03-31T15:19:52;20.10;99.90
16289;DHT22;26089;43.538;5.250;2023-03-31T15:22:22;20.20;99.90
16289;DHT22;26089;43.538;5.250;2023-03-31T15:24:49;20.20;99.90
16289;DHT22;26089;43.538;5.250;2023-03-31T15:27:20;20.00;99.90
16289;DHT22;26089;43.538;5.250;2023-03-31T15:29:54;20.30;99.90
16289;DHT22;26089;43.538;5.250;2023-03-31T15:32:24;20.40;99.90
16289;DHT22;26089;43.538;5.250;2023-03-31T15:34:53;20.70;99.90
16289;DHT22;26089;43.538;5.250;2023-03-31T15:37:21;21.40;99.90
16289;DHT22;26089;43.538;5.250;2023-03-31T15:39:55;21.70;99.90
16289;DHT22;26089;43.538;5.250;2023-03-31T15:42:23;22.10;99.90
16289;DHT22;26089;43.538;5.250;2023-03-31T15:44:53;22.30;99.90
16289;DHT22;26089;43.538;5.250;2023-03-31T15:47:22;22.30;99.90
16289;DHT22;26089;43.538;5.250;2023-03-31T15:49:56;22.10;99.90
16289;DHT22;26089;43.538;5.250;2023-03-31T15:52:30;22.30;99.90
16289;DHT22;26089;43.538;5.250;2023-03-31T15:54:59;22.40;99.90
16289;DHT22;26089;43.538;5.250;2023-03-31T15:57:34;21.90;99.90
16289;DHT22;26089;43.538;5.250;2023-03-31T16:00:02;21.50;99.90
16289;DHT22;26089;43.538;5.250;2023-03-31T16:02:38;21.30;99.90
16289;DHT22;26089;43.538;5.250;2023-03-31T16:05:23;21.00;99.90
16289;DHT22;26089;43.538;5.250;2023-03-31T16:07:57;20.80;99.90
16289;DHT22;26089;43.538;5.250;2023-03-31T16:10:25;20.70;99.90
16289;DHT22;26089;43.538;5.250;2023-03-31T16:12:55;20.50;99.90
16289;DHT22;26089;43.538;5.250;2023-03-31T16:15:29;20.50;99.90
16289;DHT22;26089;43.538;5.250;2023-03-31T16:17:59;20.40;99.90